sensor_id;sensor_type;location;lat;lon;timestamp;pressure;altitude;pressure_sealevel;temperature;humidity
83411;BME280;73340;53.132;8.174;2024-03-07T00:01:35;102732.38;;;4.55;82.57
83411;BME280;73340;53.132;8.174;2024-03-07T00:04:00;102730.91;;;4.66;82.24
83411;BME280;73340;53.132;8.174;2024-03-07T00:06:25;102729.97;;;4.64;82.25
83411;BME280;73340;53.132;8.174;2024-03-07T00:08:51;102732.50;;;4.61;81.95
83411;BME280;73340;53.132;8.174;2024-03-07T00:11:16;102736.06;;;4.63;82.21
83411;BME280;73340;53.132;8.174;2024-03-07T00:13:42;102726.41;;;4.61;81.72
83411;BME280;73340;53.132;8.174;2024-03-07T00:16:08;102730.16;;;4.70;81.52
83411;BME280;73340;53.132;8.174;2024-03-07T00:18:35;102726.72;;;4.73;81.14
83411;BME280;73340;53.132;8.174;2024-03-07T00:21:00;102733.59;;;4.69;81.18
83411;BME280;73340;53.132;8.174;2024-03-07T00:23:26;102735.38;;;4.70;81.73
83411;BME280;73340;53.132;8.174;2024-03-07T00:25:52;102660.94;;;4.16;81.84
83411;BME280;73340;53.132;8.174;2024-03-07T00:28:17;102734.59;;;4.74;81.41
83411;BME280;73340;53.132;8.174;2024-03-07T00:30:43;102697.59;;;4.56;81.30
83411;BME280;73340;53.132;8.174;2024-03-07T00:33:11;102733.63;;;4.71;80.99
83411;BME280;73340;53.132;8.174;2024-03-07T00:35:36;102738.81;;;4.69;81.54
83411;BME280;73340;53.132;8.174;2024-03-07T00:38:01;102728.34;;;4.68;81.53
83411;BME280;73340;53.132;8.174;2024-03-07T00:40:27;102734.50;;;4.71;80.86
83411;BME280;73340;53.132;8.174;2024-03-07T00:42:53;102738.69;;;4.65;80.83
83411;BME280;73340;53.132;8.174;2024-03-07T00:45:18;102735.22;;;4.66;80.96
83411;BME280;73340;53.132;8.174;2024-03-07T00:47:44;102728.22;;;4.63;81.83
83411;BME280;73340;53.132;8.174;2024-03-07T00:50:09;102729.97;;;4.64;81.79
83411;BME280;73340;53.132;8.174;2024-03-07T00:52:35;102712.44;;;4.57;81.53
83411;BME280;73340;53.132;8.174;2024-03-07T00:55:00;102725.56;;;4.60;81.43
83411;BME280;73340;53.132;8.174;2024-03-07T00:57:26;102708.03;;;4.56;82.05
83411;BME280;73340;53.132;8.174;2024-03-07T00:59:51;102719.50;;;4.63;81.53
83411;BME280;73340;53.132;8.174;2024-03-07T01:02:17;102720.16;;;4.54;81.59
83411;BME280;73340;53.132;8.174;2024-03-07T01:04:42;102716.91;;;4.63;82.24
83411;BME280;73340;53.132;8.174;2024-03-07T01:07:08;102716.72;;;4.55;81.95
83411;BME280;73340;53.132;8.174;2024-03-07T01:09:34;102718.53;;;4.59;82.03
83411;BME280;73340;53.132;8.174;2024-03-07T01:12:01;102721.66;;;4.45;81.57
83411;BME280;73340;53.132;8.174;2024-03-07T01:14:29;102719.91;;;4.44;82.30
83411;BME280;73340;53.132;8.174;2024-03-07T01:16:56;102718.25;;;4.47;82.32
83411;BME280;73340;53.132;8.174;2024-03-07T01:19:21;102712.25;;;4.51;82.59
83411;BME280;73340;53.132;8.174;2024-03-07T01:21:46;102723.63;;;4.53;82.97
83411;BME280;73340;53.132;8.174;2024-03-07T01:24:12;102716.66;;;4.52;82.64
83411;BME280;73340;53.132;8.174;2024-03-07T01:26:37;102718.25;;;4.47;82.87
83411;BME280;73340;53.132;8.174;2024-03-07T01:29:02;102717.44;;;4.50;82.97
83411;BME280;73340;53.132;8.174;2024-03-07T01:31:29;102718.34;;;4.50;82.63
83411;BME280;73340;53.132;8.174;2024-03-07T01:33:54;102716.47;;;4.46;83.00
83411;BME280;73340;53.132;8.174;2024-03-07T01:36:20;102716.53;;;4.49;82.98
83411;BME280;73340;53.132;8.174;2024-03-07T01:38:46;102710.50;;;4.50;82.96
83411;BME280;73340;53.132;8.174;2024-03-07T01:41:11;102706.22;;;4.52;82.85
83411;BME280;73340;53.132;8.174;2024-03-07T01:43:37;102711.47;;;4.54;82.78
83411;BME280;73340;53.132;8.174;2024-03-07T01:46:03;102715.66;;;4.47;82.94
83411;BME280;73340;53.132;8.174;2024-03-07T01:48:28;102719.88;;;4.42;83.45
83411;BME280;73340;53.132;8.174;2024-03-07T01:50:54;102714.53;;;4.39;83.41
83411;BME280;73340;53.132;8.174;2024-03-07T01:53:21;102703.81;;;4.27;83.31
83411;BME280;73340;53.132;8.174;2024-03-07T01:55:47;102671.38;;;4.18;83.52
83411;BME280;73340;53.132;8.174;2024-03-07T01:58:13;102695.22;;;4.31;83.23
83411;BME280;73340;53.132;8.174;2024-03-07T02:00:41;102638.56;;;3.91;83.72
83411;BME280;73340;53.132;8.174;2024-03-07T02:03:08;102690.00;;;4.31;83.72
83411;BME280;73340;53.132;8.174;2024-03-07T02:05:34;102696.91;;;4.29;83.35
83411;BME280;73340;53.132;8.174;2024-03-07T02:07:59;102696.03;;;4.29;83.99
83411;BME280;73340;53.132;8.174;2024-03-07T02:10:27;102693.91;;;4.14;83.92
83411;BME280;73340;53.132;8.174;2024-03-07T02:12:52;102686.19;;;4.17;84.47
83411;BME280;73340;53.132;8.174;2024-03-07T02:15:17;102688.50;;;4.07;84.27
83411;BME280;73340;53.132;8.174;2024-03-07T02:17:43;102688.34;;;4.01;84.57
83411;BME280;73340;53.132;8.174;2024-03-07T02:20:09;102682.97;;;3.96;84.69
83411;BME280;73340;53.132;8.174;2024-03-07T02:22:37;102680.25;;;3.91;85.24
83411;BME280;73340;53.132;8.174;2024-03-07T02:25:02;102683.41;;;3.80;85.29
83411;BME280;73340;53.132;8.174;2024-03-07T02:27:27;102692.88;;;3.76;85.58
83411;BME280;73340;53.132;8.174;2024-03-07T02:29:53;102686.59;;;3.70;85.79
83411;BME280;73340;53.132;8.174;2024-03-07T02:32:19;102690.88;;;3.68;85.84
83411;BME280;73340;53.132;8.174;2024-03-07T02:34:44;102687.47;;;3.69;85.71
83411;BME280;73340;53.132;8.174;2024-03-07T02:37:09;102689.78;;;3.60;86.32
83411;BME280;73340;53.132;8.174;2024-03-07T02:39:38;102699.16;;;3.53;86.61
83411;BME280;73340;53.132;8.174;2024-03-07T02:42:04;102692.00;;;3.46;87.59
83411;BME280;73340;53.132;8.174;2024-03-07T02:44:29;102696.34;;;3.46;87.00
83411;BME280;73340;53.132;8.174;2024-03-07T02:46:58;102695.31;;;3.41;87.18
83411;BME280;73340;53.132;8.174;2024-03-07T02:49:23;102695.44;;;3.45;86.91
83411;BME280;73340;53.132;8.174;2024-03-07T02:51:49;102699.50;;;3.36;87.28
83411;BME280;73340;53.132;8.174;2024-03-07T02:54:14;102690.84;;;3.37;87.53
83411;BME280;73340;53.132;8.174;2024-03-07T02:56:39;102698.56;;;3.34;87.74
83411;BME280;73340;53.132;8.174;2024-03-07T02:59:05;102704.59;;;3.33;87.71
83411;BME280;73340;53.132;8.174;2024-03-07T03:01:32;102702.56;;;3.23;88.06
83411;BME280;73340;53.132;8.174;2024-03-07T03:03:57;102693.63;;;3.15;88.36
83411;BME280;73340;53.132;8.174;2024-03-07T03:06:23;102698.75;;;3.12;89.02
83411;BME280;73340;53.132;8.174;2024-03-07T03:08:48;102691.50;;;3.02;88.97
83411;BME280;73340;53.132;8.174;2024-03-07T03:11:14;102694.03;;;2.99;89.30
83411;BME280;73340;53.132;8.174;2024-03-07T03:13:42;102698.25;;;2.95;89.29
83411;BME280;73340;53.132;8.174;2024-03-07T03:16:08;102702.59;;;2.96;89.14
83411;BME280;73340;53.132;8.174;2024-03-07T03:18:33;102696.28;;;2.88;89.49
83411;BME280;73340;53.132;8.174;2024-03-07T03:21:00;102674.13;;;2.73;89.80
83411;BME280;73340;53.132;8.174;2024-03-07T03:23:25;102687.75;;;2.92;90.21
83411;BME280;73340;53.132;8.174;2024-03-07T03:25:51;102676.34;;;2.89;89.64
83411;BME280;73340;53.132;8.174;2024-03-07T03:28:16;102689.47;;;2.92;89.85
83411;BME280;73340;53.132;8.174;2024-03-07T03:30:44;102692.59;;;2.82;89.98
83411;BME280;73340;53.132;8.174;2024-03-07T03:33:10;102690.63;;;2.75;90.68
83411;BME280;73340;53.132;8.174;2024-03-07T03:35:39;102687.25;;;2.77;90.41
83411;BME280;73340;53.132;8.174;2024-03-07T03:38:04;102691.63;;;2.78;90.76
83411;BME280;73340;53.132;8.174;2024-03-07T03:40:30;102694.25;;;2.80;90.91
83411;BME280;73340;53.132;8.174;2024-03-07T03:42:56;102693.59;;;2.85;90.60
83411;BME280;73340;53.132;8.174;2024-03-07T03:45:22;102671.13;;;2.60;90.96
83411;BME280;73340;53.132;8.174;2024-03-07T03:47:47;102694.81;;;2.70;91.13
83411;BME280;73340;53.132;8.174;2024-03-07T03:50:13;102644.44;;;2.39;91.60
83411;BME280;73340;53.132;8.174;2024-03-07T03:52:39;102708.25;;;2.56;91.27
83411;BME280;73340;53.132;8.174;2024-03-07T03:55:06;102708.69;;;2.43;92.69
83411;BME280;73340;53.132;8.174;2024-03-07T03:57:32;102698.00;;;2.34;92.80
83411;BME280;73340;53.132;8.174;2024-03-07T04:00:01;102694.44;;;2.32;92.89
83411;BME280;73340;53.132;8.174;2024-03-07T04:02:35;102708.69;;;2.43;92.62
83411;BME280;73340;53.132;8.174;2024-03-07T04:05:02;102704.84;;;2.32;92.92
83411;BME280;73340;53.132;8.174;2024-03-07T04:07:29;102653.28;;;1.94;93.26
83411;BME280;73340;53.132;8.174;2024-03-07T04:09:56;102700.25;;;2.00;93.38
83411;BME280;73340;53.132;8.174;2024-03-07T04:12:23;102716.38;;;2.15;94.20
83411;BME280;73340;53.132;8.174;2024-03-07T04:14:48;102678.56;;;2.00;94.15
83411;BME280;73340;53.132;8.174;2024-03-07T04:17:14;102721.09;;;2.02;94.19
83411;BME280;73340;53.132;8.174;2024-03-07T04:19:42;102708.56;;;2.15;94.63
83411;BME280;73340;53.132;8.174;2024-03-07T04:22:08;102704.44;;;2.20;94.03
83411;BME280;73340;53.132;8.174;2024-03-07T04:24:35;102714.63;;;2.14;94.14
83411;BME280;73340;53.132;8.174;2024-03-07T04:27:02;102715.34;;;2.10;94.40
83411;BME280;73340;53.132;8.174;2024-03-07T04:29:33;102716.28;;;2.12;94.79
83411;BME280;73340;53.132;8.174;2024-03-07T04:32:00;102721.38;;;2.09;95.24
83411;BME280;73340;53.132;8.174;2024-03-07T04:34:29;102703.13;;;2.08;94.86
83411;BME280;73340;53.132;8.174;2024-03-07T04:36:59;102708.78;;;2.21;94.89
83411;BME280;73340;53.132;8.174;2024-03-07T04:39:26;102707.03;;;2.20;94.70
83411;BME280;73340;53.132;8.174;2024-03-07T04:42:05;102706.97;;;2.19;95.03
83411;BME280;73340;53.132;8.174;2024-03-07T04:44:32;102703.84;;;2.29;95.00
83411;BME280;73340;53.132;8.174;2024-03-07T04:46:58;102707.22;;;2.26;94.37
83411;BME280;73340;53.132;8.174;2024-03-07T04:49:26;102712.28;;;2.22;94.55
83411;BME280;73340;53.132;8.174;2024-03-07T04:51:53;102709.63;;;2.20;95.04
83411;BME280;73340;53.132;8.174;2024-03-07T04:54:19;102706.97;;;2.19;94.29
83411;BME280;73340;53.132;8.174;2024-03-07T04:56:45;102686.59;;;2.06;95.13
83411;BME280;73340;53.132;8.174;2024-03-07T04:59:12;102708.00;;;2.24;95.17
83411;BME280;73340;53.132;8.174;2024-03-07T05:01:38;102709.78;;;2.25;95.25
83411;BME280;73340;53.132;8.174;2024-03-07T05:04:04;102706.50;;;2.30;95.06
83411;BME280;73340;53.132;8.174;2024-03-07T05:06:30;102700.41;;;2.30;95.01
83411;BME280;73340;53.132;8.174;2024-03-07T05:09:05;102701.81;;;2.20;95.46
83411;BME280;73340;53.132;8.174;2024-03-07T05:11:32;102697.72;;;2.27;95.21
83411;BME280;73340;53.132;8.174;2024-03-07T05:13:58;102700.69;;;2.37;94.79
83411;BME280;73340;53.132;8.174;2024-03-07T05:16:26;102704.38;;;2.44;95.22
83411;BME280;73340;53.132;8.174;2024-03-07T05:18:52;102704.47;;;2.47;95.01
83411;BME280;73340;53.132;8.174;2024-03-07T05:21:20;102706.88;;;2.41;95.20
83411;BME280;73340;53.132;8.174;2024-03-07T05:23:58;102687.50;;;2.33;95.38
83411;BME280;73340;53.132;8.174;2024-03-07T05:26:24;102704.22;;;2.39;95.23
83411;BME280;73340;53.132;8.174;2024-03-07T05:28:50;102712.69;;;2.34;95.79
83411;BME280;73340;53.132;8.174;2024-03-07T05:31:16;102715.75;;;2.47;95.80
83411;BME280;73340;53.132;8.174;2024-03-07T05:33:43;102691.00;;;2.58;96.51
83411;BME280;73340;53.132;8.174;2024-03-07T05:36:09;102644.59;;;2.44;96.81
83411;BME280;73340;53.132;8.174;2024-03-07T05:38:44;102705.38;;;2.74;96.73
83411;BME280;73340;53.132;8.174;2024-03-07T05:41:13;102700.31;;;2.79;96.48
83411;BME280;73340;53.132;8.174;2024-03-07T05:43:39;102699.78;;;2.89;96.38
83411;BME280;73340;53.132;8.174;2024-03-07T05:46:04;102702.28;;;2.86;96.15
83411;BME280;73340;53.132;8.174;2024-03-07T05:48:34;102702.31;;;2.87;95.77
83411;BME280;73340;53.132;8.174;2024-03-07T05:51:00;102645.03;;;2.57;95.57
83411;BME280;73340;53.132;8.174;2024-03-07T05:53:25;102709.78;;;2.77;95.66
83411;BME280;73340;53.132;8.174;2024-03-07T05:55:51;102713.31;;;2.79;95.78
83411;BME280;73340;53.132;8.174;2024-03-07T05:58:17;102713.50;;;2.85;95.88
83411;BME280;73340;53.132;8.174;2024-03-07T06:00:44;102710.63;;;2.76;95.86
83411;BME280;73340;53.132;8.174;2024-03-07T06:03:18;102712.34;;;2.75;96.01
83411;BME280;73340;53.132;8.174;2024-03-07T06:05:45;102673.91;;;2.67;95.96
83411;BME280;73340;53.132;8.174;2024-03-07T06:08:14;102713.75;;;2.92;95.73
83411;BME280;73340;53.132;8.174;2024-03-07T06:10:42;102720.00;;;2.97;95.80
83411;BME280;73340;53.132;8.174;2024-03-07T06:13:07;102717.03;;;2.87;95.77
83411;BME280;73340;53.132;8.174;2024-03-07T06:15:32;102721.47;;;2.89;95.74
83411;BME280;73340;53.132;8.174;2024-03-07T06:17:59;102721.34;;;2.86;95.89
83411;BME280;73340;53.132;8.174;2024-03-07T06:20:25;102718.28;;;2.98;96.10
83411;BME280;73340;53.132;8.174;2024-03-07T06:22:51;102723.94;;;2.86;95.54
83411;BME280;73340;53.132;8.174;2024-03-07T06:25:18;102716.50;;;2.97;95.94
83411;BME280;73340;53.132;8.174;2024-03-07T06:28:02;102731.28;;;2.98;95.74
83411;BME280;73340;53.132;8.174;2024-03-07T06:30:38;102735.75;;;3.02;96.00
83411;BME280;73340;53.132;8.174;2024-03-07T06:33:05;102714.13;;;3.03;96.11
83411;BME280;73340;53.132;8.174;2024-03-07T06:35:31;102712.31;;;3.02;96.26
83411;BME280;73340;53.132;8.174;2024-03-07T06:37:56;102717.81;;;3.11;96.40
83411;BME280;73340;53.132;8.174;2024-03-07T06:40:21;102711.72;;;3.10;96.07
83411;BME280;73340;53.132;8.174;2024-03-07T06:42:47;102724.09;;;3.17;96.28
83411;BME280;73340;53.132;8.174;2024-03-07T06:45:13;102719.59;;;3.12;96.18
83411;BME280;73340;53.132;8.174;2024-03-07T06:47:38;102718.81;;;3.14;96.35
83411;BME280;73340;53.132;8.174;2024-03-07T06:50:04;102672.78;;;2.85;96.03
83411;BME280;73340;53.132;8.174;2024-03-07T06:52:33;102731.00;;;3.17;96.74
83411;BME280;73340;53.132;8.174;2024-03-07T06:54:59;102725.81;;;3.17;96.75
83411;BME280;73340;53.132;8.174;2024-03-07T06:57:24;102724.19;;;3.20;96.59
83411;BME280;73340;53.132;8.174;2024-03-07T06:59:49;102725.09;;;3.21;96.30
83411;BME280;73340;53.132;8.174;2024-03-07T07:02:15;102730.28;;;3.21;96.16
83411;BME280;73340;53.132;8.174;2024-03-07T07:04:41;102720.69;;;3.20;96.39
83411;BME280;73340;53.132;8.174;2024-03-07T07:07:13;102731.28;;;3.24;95.93
83411;BME280;73340;53.132;8.174;2024-03-07T07:09:39;102731.41;;;3.29;95.79
83411;BME280;73340;53.132;8.174;2024-03-07T07:12:06;102732.88;;;3.21;95.85
83411;BME280;73340;53.132;8.174;2024-03-07T07:14:31;102732.09;;;3.23;95.79
83411;BME280;73340;53.132;8.174;2024-03-07T07:16:56;102731.31;;;3.26;95.78
83411;BME280;73340;53.132;8.174;2024-03-07T07:19:24;102734.97;;;3.32;95.58
83411;BME280;73340;53.132;8.174;2024-03-07T07:21:49;102737.81;;;3.40;95.22
83411;BME280;73340;53.132;8.174;2024-03-07T07:24:20;102743.81;;;3.37;95.26
83411;BME280;73340;53.132;8.174;2024-03-07T07:26:52;102744.97;;;3.47;95.23
83411;BME280;73340;53.132;8.174;2024-03-07T07:29:17;102739.47;;;3.38;94.92
83411;BME280;73340;53.132;8.174;2024-03-07T07:31:43;102731.09;;;3.48;94.95
83411;BME280;73340;53.132;8.174;2024-03-07T07:34:10;102721.63;;;3.50;94.84
83411;BME280;73340;53.132;8.174;2024-03-07T07:36:36;102724.41;;;3.56;94.45
83411;BME280;73340;53.132;8.174;2024-03-07T07:39:01;102726.25;;;3.60;94.35
83411;BME280;73340;53.132;8.174;2024-03-07T07:41:28;102722.19;;;3.69;94.05
83411;BME280;73340;53.132;8.174;2024-03-07T07:43:53;102716.16;;;3.70;93.47
83411;BME280;73340;53.132;8.174;2024-03-07T07:46:19;102706.66;;;3.72;93.32
83411;BME280;73340;53.132;8.174;2024-03-07T07:48:45;102719.91;;;3.80;93.45
83411;BME280;73340;53.132;8.174;2024-03-07T07:51:10;102720.75;;;3.79;92.95
83411;BME280;73340;53.132;8.174;2024-03-07T07:53:36;102710.38;;;3.80;93.24
83411;BME280;73340;53.132;8.174;2024-03-07T07:56:01;102708.94;;;3.91;92.65
83411;BME280;73340;53.132;8.174;2024-03-07T07:58:26;102714.22;;;3.94;92.88
83411;BME280;73340;53.132;8.174;2024-03-07T08:00:52;102700.31;;;3.94;92.70
83411;BME280;73340;53.132;8.174;2024-03-07T08:03:17;102702.94;;;3.94;92.60
83411;BME280;73340;53.132;8.174;2024-03-07T08:05:47;102702.28;;;4.03;92.49
83411;BME280;73340;53.132;8.174;2024-03-07T08:08:12;102703.47;;;4.14;92.22
83411;BME280;73340;53.132;8.174;2024-03-07T08:10:41;102707.78;;;4.13;91.78
83411;BME280;73340;53.132;8.174;2024-03-07T08:13:07;102696.66;;;4.19;92.07
83411;BME280;73340;53.132;8.174;2024-03-07T08:15:33;102695.81;;;4.21;91.83
83411;BME280;73340;53.132;8.174;2024-03-07T08:17:59;102687.25;;;4.25;91.66
83411;BME280;73340;53.132;8.174;2024-03-07T08:20:25;102684.84;;;4.34;92.03
83411;BME280;73340;53.132;8.174;2024-03-07T08:22:55;102683.19;;;4.36;91.69
83411;BME280;73340;53.132;8.174;2024-03-07T08:25:22;102676.03;;;4.29;91.92
83411;BME280;73340;53.132;8.174;2024-03-07T08:27:49;102685.97;;;4.42;91.85
83411;BME280;73340;53.132;8.174;2024-03-07T08:30:15;102682.59;;;4.48;91.51
83411;BME280;73340;53.132;8.174;2024-03-07T08:32:51;102678.22;;;4.45;91.27
83411;BME280;73340;53.132;8.174;2024-03-07T08:35:21;102679.31;;;4.55;91.33
83411;BME280;73340;53.132;8.174;2024-03-07T08:37:48;102679.38;;;4.58;91.34
83411;BME280;73340;53.132;8.174;2024-03-07T08:40:21;102677.78;;;4.64;91.03
83411;BME280;73340;53.132;8.174;2024-03-07T08:42:48;102667.50;;;4.69;91.22
83411;BME280;73340;53.132;8.174;2024-03-07T08:45:16;102669.94;;;4.63;91.69
83411;BME280;73340;53.132;8.174;2024-03-07T08:47:46;102666.63;;;4.70;91.37
83411;BME280;73340;53.132;8.174;2024-03-07T08:50:12;102665.06;;;4.78;91.63
83411;BME280;73340;53.132;8.174;2024-03-07T08:52:39;102660.75;;;4.78;91.70
83411;BME280;73340;53.132;8.174;2024-03-07T08:55:05;102660.16;;;4.90;91.83
83411;BME280;73340;53.132;8.174;2024-03-07T08:57:31;102655.06;;;4.96;91.19
83411;BME280;73340;53.132;8.174;2024-03-07T08:59:57;102655.22;;;5.02;91.32
83411;BME280;73340;53.132;8.174;2024-03-07T09:02:22;102671.66;;;4.99;90.83
83411;BME280;73340;53.132;8.174;2024-03-07T09:04:48;102660.50;;;5.05;91.35
83411;BME280;73340;53.132;8.174;2024-03-07T09:07:14;102656.22;;;5.08;91.23
83411;BME280;73340;53.132;8.174;2024-03-07T09:09:42;102626.38;;;4.97;90.66
83411;BME280;73340;53.132;8.174;2024-03-07T09:12:11;102656.63;;;5.27;90.76
83411;BME280;73340;53.132;8.174;2024-03-07T09:14:37;102621.53;;;5.14;90.04
83411;BME280;73340;53.132;8.174;2024-03-07T09:17:03;102662.28;;;5.48;90.47
83411;BME280;73340;53.132;8.174;2024-03-07T09:19:30;102661.47;;;5.50;89.65
83411;BME280;73340;53.132;8.174;2024-03-07T09:21:55;102652.75;;;5.50;89.77
83411;BME280;73340;53.132;8.174;2024-03-07T09:24:21;102656.28;;;5.52;89.69
83411;BME280;73340;53.132;8.174;2024-03-07T09:26:48;102656.34;;;5.55;89.61
83411;BME280;73340;53.132;8.174;2024-03-07T09:29:14;102623.09;;;5.48;89.41
83411;BME280;73340;53.132;8.174;2024-03-07T09:31:39;102651.41;;;5.70;88.91
83411;BME280;73340;53.132;8.174;2024-03-07T09:34:05;102651.44;;;5.71;88.47
83411;BME280;73340;53.132;8.174;2024-03-07T09:36:30;102661.97;;;5.76;89.01
83411;BME280;73340;53.132;8.174;2024-03-07T09:38:56;102643.78;;;5.80;87.99
83411;BME280;73340;53.132;8.174;2024-03-07T09:41:23;102639.31;;;5.75;88.70
83411;BME280;73340;53.132;8.174;2024-03-07T09:43:52;102639.38;;;5.79;87.92
83411;BME280;73340;53.132;8.174;2024-03-07T09:46:23;102593.72;;;5.61;88.45
83411;BME280;73340;53.132;8.174;2024-03-07T09:48:50;102631.06;;;5.97;87.59
83411;BME280;73340;53.132;8.174;2024-03-07T09:51:20;102632.84;;;6.01;86.97
83411;BME280;73340;53.132;8.174;2024-03-07T09:53:48;102626.66;;;5.96;87.92
83411;BME280;73340;53.132;8.174;2024-03-07T09:56:17;102632.28;;;6.17;87.35
83411;BME280;73340;53.132;8.174;2024-03-07T09:58:49;102623.63;;;6.22;87.01
83411;BME280;73340;53.132;8.174;2024-03-07T10:01:15;102623.75;;;6.28;86.85
83411;BME280;73340;53.132;8.174;2024-03-07T10:03:43;102621.00;;;6.21;86.02
83411;BME280;73340;53.132;8.174;2024-03-07T10:06:10;102632.44;;;6.27;85.75
83411;BME280;73340;53.132;8.174;2024-03-07T10:08:36;102629.16;;;6.40;86.59
83411;BME280;73340;53.132;8.174;2024-03-07T10:11:02;102606.56;;;6.45;85.28
83411;BME280;73340;53.132;8.174;2024-03-07T10:13:27;102628.81;;;6.72;84.83
83411;BME280;73340;53.132;8.174;2024-03-07T10:15:54;102624.81;;;6.96;84.43
83411;BME280;73340;53.132;8.174;2024-03-07T10:18:25;102623.06;;;6.95;83.65
83411;BME280;73340;53.132;8.174;2024-03-07T10:20:53;102629.88;;;6.84;84.79
83411;BME280;73340;53.132;8.174;2024-03-07T10:23:20;102628.91;;;6.78;83.89
83411;BME280;73340;53.132;8.174;2024-03-07T10:25:46;102626.94;;;6.63;84.19
83411;BME280;73340;53.132;8.174;2024-03-07T10:28:12;102627.88;;;6.67;84.43
83411;BME280;73340;53.132;8.174;2024-03-07T10:30:41;102627.75;;;6.61;84.08
83411;BME280;73340;53.132;8.174;2024-03-07T10:33:09;102598.84;;;6.53;84.65
83411;BME280;73340;53.132;8.174;2024-03-07T10:35:37;102601.56;;;6.61;83.93
83411;BME280;73340;53.132;8.174;2024-03-07T10:38:02;102613.94;;;6.69;84.35
83411;BME280;73340;53.132;8.174;2024-03-07T10:40:32;102610.59;;;6.81;83.80
83411;BME280;73340;53.132;8.174;2024-03-07T10:42:58;102582.16;;;6.45;83.86
83411;BME280;73340;53.132;8.174;2024-03-07T10:45:28;102623.69;;;6.81;83.88
83411;BME280;73340;53.132;8.174;2024-03-07T10:47:56;102620.16;;;6.77;84.00
83411;BME280;73340;53.132;8.174;2024-03-07T10:59:10;102611.03;;;7.11;82.25
83411;BME280;73340;53.132;8.174;2024-03-07T11:01:47;102610.91;;;7.00;81.53
83411;BME280;73340;53.132;8.174;2024-03-07T11:04:16;102611.56;;;6.87;81.95
83411;BME280;73340;53.132;8.174;2024-03-07T11:06:42;102579.09;;;6.73;81.71
83411;BME280;73340;53.132;8.174;2024-03-07T11:09:08;102604.63;;;6.89;82.01
83411;BME280;73340;53.132;8.174;2024-03-07T11:11:39;102591.84;;;7.10;81.66
83411;BME280;73340;53.132;8.174;2024-03-07T11:14:10;102599.53;;;7.00;82.06
83411;BME280;73340;53.132;8.174;2024-03-07T11:16:40;102608.09;;;6.88;81.69
83411;BME280;73340;53.132;8.174;2024-03-07T11:21:56;102598.47;;;6.86;81.00
83411;BME280;73340;53.132;8.174;2024-03-07T11:24:23;102599.31;;;6.83;81.04
83411;BME280;73340;53.132;8.174;2024-03-07T11:26:51;102593.31;;;6.92;81.35
83411;BME280;73340;53.132;8.174;2024-03-07T11:32:01;102598.22;;;6.71;81.86
83411;BME280;73340;53.132;8.174;2024-03-07T11:34:29;102573.50;;;6.49;81.47
83411;BME280;73340;53.132;8.174;2024-03-07T11:36:55;102586.97;;;6.76;82.02
83411;BME280;73340;53.132;8.174;2024-03-07T11:39:41;102590.50;;;6.77;81.41
83411;BME280;73340;53.132;8.174;2024-03-07T11:42:07;102542.19;;;6.55;81.52
83411;BME280;73340;53.132;8.174;2024-03-07T11:44:32;102520.94;;;6.35;80.97
83411;BME280;73340;53.132;8.174;2024-03-07T11:47:01;102589.50;;;6.69;81.05
83411;BME280;73340;53.132;8.174;2024-03-07T11:49:37;102567.72;;;6.73;81.67
83411;BME280;73340;53.132;8.174;2024-03-07T11:52:03;102589.06;;;7.01;81.06
83411;BME280;73340;53.132;8.174;2024-03-07T11:54:41;102557.09;;;6.62;81.15
83411;BME280;73340;53.132;8.174;2024-03-07T11:57:20;102585.78;;;6.53;81.70
83411;BME280;73340;53.132;8.174;2024-03-07T11:59:52;102592.72;;;6.53;81.83
83411;BME280;73340;53.132;8.174;2024-03-07T12:02:18;102583.19;;;6.56;81.05
83411;BME280;73340;53.132;8.174;2024-03-07T12:04:49;102583.38;;;6.68;81.42
83411;BME280;73340;53.132;8.174;2024-03-07T12:07:15;102581.56;;;6.64;80.73
83411;BME280;73340;53.132;8.174;2024-03-07T12:09:43;102578.91;;;6.61;80.84
83411;BME280;73340;53.132;8.174;2024-03-07T12:12:16;102586.72;;;6.58;81.03
83411;BME280;73340;53.132;8.174;2024-03-07T12:14:42;102585.78;;;6.55;81.81
83411;BME280;73340;53.132;8.174;2024-03-07T12:17:08;102580.25;;;6.35;81.32
83411;BME280;73340;53.132;8.174;2024-03-07T12:19:35;102562.75;;;6.32;82.03
83411;BME280;73340;53.132;8.174;2024-03-07T12:22:01;102530.88;;;6.01;81.99
83411;BME280;73340;53.132;8.174;2024-03-07T12:24:27;102582.06;;;6.40;82.06
83411;BME280;73340;53.132;8.174;2024-03-07T12:27:04;102571.59;;;6.39;81.85
83411;BME280;73340;53.132;8.174;2024-03-07T12:29:29;102573.28;;;6.35;81.25
83411;BME280;73340;53.132;8.174;2024-03-07T12:31:56;102567.25;;;6.41;81.89
83411;BME280;73340;53.132;8.174;2024-03-07T12:34:21;102556.59;;;6.29;80.12
83411;BME280;73340;53.132;8.174;2024-03-07T12:36:47;102561.03;;;6.31;80.69
83411;BME280;73340;53.132;8.174;2024-03-07T12:41:52;102548.94;;;6.39;80.35
83411;BME280;73340;53.132;8.174;2024-03-07T12:44:20;102562.06;;;6.42;80.35
83411;BME280;73340;53.132;8.174;2024-03-07T12:46:53;102547.25;;;6.44;81.07
83411;BME280;73340;53.132;8.174;2024-03-07T12:49:22;102530.50;;;6.32;79.80
83411;BME280;73340;53.132;8.174;2024-03-07T12:51:53;102546.22;;;6.33;80.22
83411;BME280;73340;53.132;8.174;2024-03-07T12:54:19;102543.44;;;6.23;80.14
83411;BME280;73340;53.132;8.174;2024-03-07T12:56:44;102543.47;;;6.24;80.68
83411;BME280;73340;53.132;8.174;2024-03-07T12:59:09;102540.19;;;6.39;81.17
83411;BME280;73340;53.132;8.174;2024-03-07T13:01:35;102541.22;;;6.47;80.78
83411;BME280;73340;53.132;8.174;2024-03-07T13:04:05;102541.00;;;6.33;80.00
83411;BME280;73340;53.132;8.174;2024-03-07T13:06:34;102536.72;;;6.40;79.24
83411;BME280;73340;53.132;8.174;2024-03-07T13:08:59;102539.38;;;6.43;79.73
83411;BME280;73340;53.132;8.174;2024-03-07T13:11:25;102454.31;;;6.11;79.38
83411;BME280;73340;53.132;8.174;2024-03-07T13:13:55;102536.94;;;6.55;80.05
83411;BME280;73340;53.132;8.174;2024-03-07T13:16:22;102529.72;;;6.39;79.50